This is the latest recevied weather packets stored in our database for station/object OE-11051. If no packets are shown the sender has not sent any weather packets the latest 10 day(s).
| Time | Temp. | Humidity | Pressure | Rain* | Wind** | Luminosity | Snow |
|---|---|---|---|---|---|---|---|
| 1787663107 | 17.78° C | 73% | 1013.9 hPa | 0 mm | - | 181 W/m² | - |
| 1787662507 | 17.78° C | 73% | 1013.9 hPa | 0 mm | - | 213 W/m² | - |
| 1787661680 | 17.78° C | 73% | 1013.8 hPa | 0 mm | - | 239 W/m² | - |
| 1787661307 | 17.78° C | 74% | 1013.8 hPa | 0 mm | - | 232 W/m² | - |
| 1787660707 | 17.78° C | 74% | 1013.5 hPa | 0 mm | - | 239 W/m² | - |
| 1787660118 | 18.33° C | 71% | 1013.3 hPa | 0 mm | - | 284 W/m² | - |
| 1787659506 | 18.33° C | 67% | 1013.2 hPa | 0 mm | - | 277 W/m² | - |
| 1787658907 | 18.89° C | 65% | 1013 hPa | 0 mm | - | 284 W/m² | - |
| 1787658080 | 18.89° C | 64% | 1012.9 hPa | 0 mm | - | 303 W/m² | - |
| 1787657706 | 18.89° C | 63% | 1012.9 hPa | 0 mm | - | 387 W/m² | - |
| 1787657106 | 19.44° C | 61% | 1012.6 hPa | 0 mm | - | 651 W/m² | - |
| 1787654480 | 19.44° C | 63% | 1012.2 hPa | 0 mm | - | 393 W/m² | - |
| 1787652307 | 18.33° C | 63% | 1011.9 hPa | 0 mm | - | 155 W/m² | - |
| 1787651706 | 18.33° C | 64% | 1011.9 hPa | 0 mm | - | 135 W/m² | - |
| 1787650880 | 18.33° C | 64% | 1011.7 hPa | 0 mm | - | 135 W/m² | - |
| 1787650507 | 18.89° C | 63% | 1011.7 hPa | 0 mm | - | 155 W/m² | - |
| 1787649907 | 18.89° C | 63% | 1011.6 hPa | 0 mm | - | 161 W/m² | - |
| 1787649079 | 18.89° C | 63% | 1011.5 hPa | 0 mm | - | 161 W/m² | - |
| 1787648707 | 18.89° C | 64% | 1011.3 hPa | 0 mm | - | 181 W/m² | - |
| 1787648107 | 18.89° C | 64% | 1011.2 hPa | 0 mm | - | 232 W/m² | - |
| 1787647279 | 18.89° C | 62% | 1010.9 hPa | 0 mm | - | 258 W/m² | - |
| 1787646907 | 18.89° C | 63% | 1010.7 hPa | 0 mm | - | 245 W/m² | - |
| 1787646307 | 19.44° C | 61% | 1010.7 hPa | 0 mm | - | 251 W/m² | - |
| 1787645479 | 18.89° C | 61% | 1010.7 hPa | 0 mm | - | 239 W/m² | - |
| 1787645107 | 18.89° C | 59% | 1010.4 hPa | 0 mm | - | 213 W/m² | - |
* Rain latest hour (hover to see other rain measurements)
** Current wind speed in m/s (hover to see current wind gust speed)